Historyczne dane pomiarowe

Dodano dane terminowe – wersja testowa.

Dane z okresu 1951-2019

Wersja bazy: 1.34 [2019-03-16, lista zmian], aktualizacja planowana na 2019-04-15

Dane meteo z obszaru Polski uzyskane na podstawie danych udostępnionych przez Instytut Meteorologii i Gospodarki Wodnej – Państwowy Instytut Badawczy.

 

Wybierz Datę:    

       

TemperaturaWilgotnośćWiatrCiśnienieOpadyŚniegCzas trwania zjawisk
 Stacja t tx tn tng RH VA  wxwx mslp ppp RRR   cm mm wxwxwxwxwxwxwx
1962-02-14 -2.4 2.6 -5.2--- 5.3 1.3---- 1.5------------
1962-02-15 -5.4 0.4 -8.1--- 4.7 3.3---- 2.1-- 2---------
1962-02-16 0.3 2.9 -8.9--- 8.0 8.3---- 12.2-- 4---------
1962-02-17 -0.8 3.3 -3.3--- 8.0 5.3---- 0.2-- 4---------
1962-02-18 -3.1 -1.5 -4.9--- 4.3 3.7---- 0.4-- 4---------
1962-02-19 1.2 3.1 -4.1--- 8.0 2.7---- 0.7-- 2---------
1962-02-20 2.6 4.4 1.7--- 7.7 4.3---- 0.0------------
1962-02-21 -1.6 2.7 -2.7--- 8.0 4.7---- 0.4------------
1962-02-22 -5.1 -1.6 -6.8--- 7.0 3.0---- 0.3-- 2---------
1962-02-23 -1.7 0.5 -6.8--- 6.3 4.7---- 0.0------------
1962-02-24 -5.6 -0.6 -7.0--- 6.0 4.0---- 1.6------------
1962-02-25 -7.2 -5.0 -9.5--- 6.7 3.0---- 2.0-- 4---------
1962-02-26 -3.6 -1.9 -7.1--- 8.0 2.3---- 2.5-- 6---------
1962-02-27 -5.3 -1.6 -8.2--- 6.7 2.3---- 0.0-- 7---------
1962-02-28 -7.8 -3.3-10.7--- 2.3 1.3---- 0.0-- 6---------
1962-03-01 -9.7 -2.4-13.5--- 0.0 1.0---- 0.0-- 5---------
1962-03-02 -7.5 -1.9-17.9--- 7.0 0.7---- 0.0-- 5---------
1962-03-03 -1.4 1.9 -8.2--- 8.0 1.0---- 0.0-- 5---------
1962-03-04 -0.3 1.3 -2.2--- 8.0 1.0---- 0.0------------
1962-03-05 -2.3 -0.4 -3.9--- 8.0 2.7---- 7.0------------
1962-03-06 -2.2 -0.4 -4.0--- 8.0 2.7---- 6.4-- 5---------
1962-03-07 -3.0 1.9-11.8--- 4.0 1.3---- 0.0-- 12---------
1962-03-08 -4.2 3.6 -8.7--- 3.0 1.7---- 0.1-- 6---------
1962-03-09 -5.2 2.2-16.3--- 1.7 3.0---- 0.0-- 6---------
1962-03-10 0.2 3.4 -4.5--- 4.3 3.3---- 0.0-- 5---------
1962-03-11 2.3 4.5 -0.1--- 7.0 0.7---- 1.0-- 3---------
1962-03-12 -1.2 2.5 -2.5--- 8.0 3.3---- 16.3-- 3---------
1962-03-13 -5.5 -1.4 -7.9--- 5.7 5.3---- 3.0-- 12---------
1962-03-14 -7.8 0.4-11.7--- 1.7 1.7---- 0.0-- 12---------
1962-03-15 -7.2 0.9-18.8--- 3.7 2.0---- 0.0-- 12---------
256.7 ms

 

Źródłem pochodzenia danych jest Instytut Meteorologii i Gospodarki Wodnej – Państwowy Instytut Badawczy. Dane Instytutu Meteorologii i Gospodarki Wodnej – Państwowego Instytutu Badawczego zostały przetworzone.

Dane źródłowe można odnaleźć na stronie https://dane.imgw.pl